Terminal Aerodrome Forecast
Issued by NWS Cleveland, OH

Home | Current Version | Previous Version | Text Only | Print | Product List | Glossary On
Versions: 1 2 3 4 5 6 7 8 9 10 11 12 13 14
614
FTUS41 KCLE 281720
TAFTOL
TAF
KTOL 281720Z 2818/2918 21012G18KT P6SM BKN150
     FM290000 20010KT P6SM BKN100 OVC200
     FM290900 22012G20KT P6SM BKN050 OVC120
     FM291400 24016G26KT P6SM BKN040 OVC100=

USA.gov is the U.S. government's official web portal to all federal, state and local government web resources and services.